sensor_id;sensor_type;location;lat;lon;timestamp;temperature;humidity
56046;DHT22;41913;51.030;3.706;2022-08-11T00:00:41;22.80;81.90
56046;DHT22;41913;51.030;3.706;2022-08-11T00:03:10;22.80;82.00
56046;DHT22;41913;51.030;3.706;2022-08-11T00:05:50;22.80;82.20
56046;DHT22;41913;51.030;3.706;2022-08-11T00:11:30;22.70;82.00
56046;DHT22;41913;51.030;3.706;2022-08-11T00:13:45;22.70;82.10
56046;DHT22;41913;51.030;3.706;2022-08-11T00:16:22;22.70;82.10
56046;DHT22;41913;51.030;3.706;2022-08-11T00:18:55;22.60;81.90
56046;DHT22;41913;51.030;3.706;2022-08-11T00:21:22;22.60;81.70
56046;DHT22;41913;51.030;3.706;2022-08-11T00:23:59;22.60;81.80
56046;DHT22;41913;51.030;3.706;2022-08-11T00:26:27;22.60;81.90
56046;DHT22;41913;51.030;3.706;2022-08-11T00:28:56;22.50;81.60
56046;DHT22;41913;51.030;3.706;2022-08-11T00:31:33;22.50;81.60
56046;DHT22;41913;51.030;3.706;2022-08-11T00:34:01;22.50;81.80
56046;DHT22;41913;51.030;3.706;2022-08-11T00:36:45;22.50;81.70
56046;DHT22;41913;51.030;3.706;2022-08-11T00:39:15;22.50;81.60
56046;DHT22;41913;51.030;3.706;2022-08-11T01:01:47;22.20;83.00
56046;DHT22;41913;51.030;3.706;2022-08-11T01:04:44;22.10;83.20
56046;DHT22;41913;51.030;3.706;2022-08-11T01:28:24;21.90;83.50
56046;DHT22;41913;51.030;3.706;2022-08-11T01:45:19;21.70;84.10
56046;DHT22;41913;51.030;3.706;2022-08-11T01:56:45;21.60;84.10
56046;DHT22;41913;51.030;3.706;2022-08-11T01:59:22;21.60;84.00
56046;DHT22;41913;51.030;3.706;2022-08-11T02:05:06;21.60;83.90
56046;DHT22;41913;51.030;3.706;2022-08-11T02:10:34;21.50;84.20
56046;DHT22;41913;51.030;3.706;2022-08-11T02:13:43;21.50;84.30
56046;DHT22;41913;51.030;3.706;2022-08-11T02:22:15;21.40;84.60
56046;DHT22;41913;51.030;3.706;2022-08-11T02:25:34;21.30;84.40
56046;DHT22;41913;51.030;3.706;2022-08-11T02:28:09;21.30;84.50
56046;DHT22;41913;51.030;3.706;2022-08-11T02:31:06;21.30;84.50
56046;DHT22;41913;51.030;3.706;2022-08-11T02:34:04;21.30;84.30
56046;DHT22;41913;51.030;3.706;2022-08-11T02:36:41;21.30;84.30
56046;DHT22;41913;51.030;3.706;2022-08-11T02:39:10;21.30;84.20
56046;DHT22;41913;51.030;3.706;2022-08-11T02:47:33;21.10;84.40
56046;DHT22;41913;51.030;3.706;2022-08-11T02:50:19;21.10;84.40
56046;DHT22;41913;51.030;3.706;2022-08-11T02:53:12;21.00;84.60
56046;DHT22;41913;51.030;3.706;2022-08-11T03:01:47;21.00;84.50
56046;DHT22;41913;51.030;3.706;2022-08-11T03:04:28;21.00;84.90
56046;DHT22;41913;51.030;3.706;2022-08-11T03:07:07;20.90;85.10
56046;DHT22;41913;51.030;3.706;2022-08-11T03:09:49;20.90;85.00
56046;DHT22;41913;51.030;3.706;2022-08-11T03:12:29;20.90;85.30
56046;DHT22;41913;51.030;3.706;2022-08-11T03:15:23;20.90;85.80
56046;DHT22;41913;51.030;3.706;2022-08-11T03:18:27;20.80;85.30
56046;DHT22;41913;51.030;3.706;2022-08-11T03:23:44;20.80;85.40
56046;DHT22;41913;51.030;3.706;2022-08-11T03:27:06;20.80;85.20
56046;DHT22;41913;51.030;3.706;2022-08-11T03:29:44;20.70;85.60
56046;DHT22;41913;51.030;3.706;2022-08-11T03:32:29;20.70;85.70
56046;DHT22;41913;51.030;3.706;2022-08-11T03:34:58;20.60;85.80
56046;DHT22;41913;51.030;3.706;2022-08-11T03:38:08;20.60;85.90
56046;DHT22;41913;51.030;3.706;2022-08-11T03:43:36;20.50;86.40
56046;DHT22;41913;51.030;3.706;2022-08-11T03:46:13;20.50;86.70
56046;DHT22;41913;51.030;3.706;2022-08-11T03:49:41;20.40;86.90
56046;DHT22;41913;51.030;3.706;2022-08-11T03:52:01;20.40;87.00
56046;DHT22;41913;51.030;3.706;2022-08-11T03:54:41;20.40;86.90
56046;DHT22;41913;51.030;3.706;2022-08-11T04:02:56;20.30;87.10
56046;DHT22;41913;51.030;3.706;2022-08-11T04:31:51;19.90;88.80
56046;DHT22;41913;51.030;3.706;2022-08-11T04:38:18;19.90;89.00
56046;DHT22;41913;51.030;3.706;2022-08-11T04:41:12;19.90;88.90
56046;DHT22;41913;51.030;3.706;2022-08-11T04:50:06;19.90;88.90
56046;DHT22;41913;51.030;3.706;2022-08-11T04:56:21;20.00;88.60
56046;DHT22;41913;51.030;3.706;2022-08-11T05:05:22;19.90;88.30
56046;DHT22;41913;51.030;3.706;2022-08-11T05:16:59;20.00;88.70
56046;DHT22;41913;51.030;3.706;2022-08-11T05:19:54;20.00;88.50
56046;DHT22;41913;51.030;3.706;2022-08-11T05:22:46;20.10;88.40
56046;DHT22;41913;51.030;3.706;2022-08-11T05:25:31;20.10;88.20
56046;DHT22;41913;51.030;3.706;2022-08-11T05:28:39;20.10;88.40
56046;DHT22;41913;51.030;3.706;2022-08-11T05:31:32;20.10;88.70
56046;DHT22;41913;51.030;3.706;2022-08-11T05:34:27;20.10;88.70
56046;DHT22;41913;51.030;3.706;2022-08-11T05:37:51;20.10;88.90
56046;DHT22;41913;51.030;3.706;2022-08-11T05:40:36;20.10;88.90
56046;DHT22;41913;51.030;3.706;2022-08-11T05:43:24;20.10;89.00
56046;DHT22;41913;51.030;3.706;2022-08-11T05:46:11;20.20;88.80
56046;DHT22;41913;51.030;3.706;2022-08-11T05:48:56;20.30;88.50
56046;DHT22;41913;51.030;3.706;2022-08-11T05:51:42;20.30;88.50
56046;DHT22;41913;51.030;3.706;2022-08-11T05:54:29;20.40;88.40
56046;DHT22;41913;51.030;3.706;2022-08-11T05:57:30;20.40;87.70
56046;DHT22;41913;51.030;3.706;2022-08-11T06:00:06;20.50;88.00
56046;DHT22;41913;51.030;3.706;2022-08-11T06:02:40;20.50;88.00
56046;DHT22;41913;51.030;3.706;2022-08-11T06:05:07;20.50;88.00
56046;DHT22;41913;51.030;3.706;2022-08-11T06:07:33;20.60;87.90
56046;DHT22;41913;51.030;3.706;2022-08-11T06:10:00;20.70;87.60
56046;DHT22;41913;51.030;3.706;2022-08-11T06:12:31;20.70;87.30
56046;DHT22;41913;51.030;3.706;2022-08-11T06:15:06;20.70;86.80
56046;DHT22;41913;51.030;3.706;2022-08-11T06:17:35;20.80;86.90
56046;DHT22;41913;51.030;3.706;2022-08-11T06:20:10;20.80;87.00
56046;DHT22;41913;51.030;3.706;2022-08-11T06:22:37;20.80;86.80
56046;DHT22;41913;51.030;3.706;2022-08-11T06:25:05;20.90;86.40
56046;DHT22;41913;51.030;3.706;2022-08-11T06:27:34;21.00;85.80
56046;DHT22;41913;51.030;3.706;2022-08-11T06:30:03;20.90;86.00
56046;DHT22;41913;51.030;3.706;2022-08-11T06:32:42;21.00;86.20
56046;DHT22;41913;51.030;3.706;2022-08-11T06:37:52;21.20;85.80
56046;DHT22;41913;51.030;3.706;2022-08-11T06:43:05;21.30;85.20
56046;DHT22;41913;51.030;3.706;2022-08-11T06:45:58;21.30;85.00
56046;DHT22;41913;51.030;3.706;2022-08-11T06:48:30;21.40;84.80
56046;DHT22;41913;51.030;3.706;2022-08-11T06:51:04;21.60;84.60
56046;DHT22;41913;51.030;3.706;2022-08-11T06:53:55;21.70;84.40
56046;DHT22;41913;51.030;3.706;2022-08-11T06:56:30;21.70;83.80
56046;DHT22;41913;51.030;3.706;2022-08-11T06:59:17;21.80;83.70
56046;DHT22;41913;51.030;3.706;2022-08-11T07:04:55;22.30;82.80
56046;DHT22;41913;51.030;3.706;2022-08-11T07:13:44;28.40;69.70
56046;DHT22;41913;51.030;3.706;2022-08-11T07:16:30;30.40;66.00
56046;DHT22;41913;51.030;3.706;2022-08-11T07:19:02;31.60;63.00
56046;DHT22;41913;51.030;3.706;2022-08-11T07:21:49;32.70;61.10
56046;DHT22;41913;51.030;3.706;2022-08-11T07:24:58;33.30;59.50
56046;DHT22;41913;51.030;3.706;2022-08-11T07:27:51;34.30;58.50
56046;DHT22;41913;51.030;3.706;2022-08-11T07:30:39;34.60;56.50
56046;DHT22;41913;51.030;3.706;2022-08-11T07:33:09;34.40;56.50
56046;DHT22;41913;51.030;3.706;2022-08-11T07:35:41;35.00;56.70
56046;DHT22;41913;51.030;3.706;2022-08-11T07:38:15;36.10;55.10
56046;DHT22;41913;51.030;3.706;2022-08-11T07:40:42;37.70;53.50
56046;DHT22;41913;51.030;3.706;2022-08-11T07:43:13;37.80;53.10
56046;DHT22;41913;51.030;3.706;2022-08-11T07:45:45;38.20;52.10
56046;DHT22;41913;51.030;3.706;2022-08-11T07:48:32;39.10;51.40
56046;DHT22;41913;51.030;3.706;2022-08-11T07:51:18;39.10;50.50
56046;DHT22;41913;51.030;3.706;2022-08-11T07:54:05;39.20;50.30
56046;DHT22;41913;51.030;3.706;2022-08-11T07:56:36;39.10;50.00
56046;DHT22;41913;51.030;3.706;2022-08-11T07:59:04;38.80;50.20
56046;DHT22;41913;51.030;3.706;2022-08-11T08:01:50;38.50;49.40
56046;DHT22;41913;51.030;3.706;2022-08-11T08:04:35;39.20;49.30
56046;DHT22;41913;51.030;3.706;2022-08-11T08:07:22;40.80;49.30
56046;DHT22;41913;51.030;3.706;2022-08-11T08:10:07;40.50;47.50
56046;DHT22;41913;51.030;3.706;2022-08-11T08:12:54;40.30;47.60
56046;DHT22;41913;51.030;3.706;2022-08-11T08:15:40;39.70;47.70
56046;DHT22;41913;51.030;3.706;2022-08-11T08:18:27;40.40;47.90
56046;DHT22;41913;51.030;3.706;2022-08-11T08:20:56;41.40;47.00
56046;DHT22;41913;51.030;3.706;2022-08-11T08:23:38;41.60;46.70
56046;DHT22;41913;51.030;3.706;2022-08-11T08:26:13;42.30;46.50
56046;DHT22;41913;51.030;3.706;2022-08-11T08:29:05;41.60;46.30
56046;DHT22;41913;51.030;3.706;2022-08-11T08:31:50;41.00;47.20
56046;DHT22;41913;51.030;3.706;2022-08-11T08:34:20;41.90;46.60
56046;DHT22;41913;51.030;3.706;2022-08-11T08:36:48;42.30;45.80
56046;DHT22;41913;51.030;3.706;2022-08-11T08:39:19;41.50;45.50
56046;DHT22;41913;51.030;3.706;2022-08-11T08:41:55;42.00;45.50
56046;DHT22;41913;51.030;3.706;2022-08-11T08:44:22;42.30;44.90
56046;DHT22;41913;51.030;3.706;2022-08-11T08:46:54;41.20;45.00
56046;DHT22;41913;51.030;3.706;2022-08-11T08:49:37;40.80;45.80
56046;DHT22;41913;51.030;3.706;2022-08-11T08:52:07;40.70;45.60
56046;DHT22;41913;51.030;3.706;2022-08-11T08:54:39;39.70;46.30
56046;DHT22;41913;51.030;3.706;2022-08-11T08:57:09;40.80;46.10
56046;DHT22;41913;51.030;3.706;2022-08-11T08:59:40;40.90;45.20
56046;DHT22;41913;51.030;3.706;2022-08-11T09:02:08;41.50;45.20
56046;DHT22;41913;51.030;3.706;2022-08-11T09:04:45;41.80;44.80
56046;DHT22;41913;51.030;3.706;2022-08-11T09:07:15;41.80;44.60
56046;DHT22;41913;51.030;3.706;2022-08-11T09:09:47;42.20;44.70
56046;DHT22;41913;51.030;3.706;2022-08-11T09:12:20;42.00;44.90
56046;DHT22;41913;51.030;3.706;2022-08-11T09:14:49;42.40;44.40
56046;DHT22;41913;51.030;3.706;2022-08-11T09:22:35;41.80;44.30
56046;DHT22;41913;51.030;3.706;2022-08-11T09:25:21;43.00;44.40
56046;DHT22;41913;51.030;3.706;2022-08-11T09:28:13;42.70;43.30
56046;DHT22;41913;51.030;3.706;2022-08-11T09:30:41;43.80;43.00
56046;DHT22;41913;51.030;3.706;2022-08-11T09:33:11;43.40;42.70
56046;DHT22;41913;51.030;3.706;2022-08-11T09:35:39;42.50;42.80
56046;DHT22;41913;51.030;3.706;2022-08-11T09:38:10;42.50;43.40
56046;DHT22;41913;51.030;3.706;2022-08-11T09:40:58;42.10;43.90
56046;DHT22;41913;51.030;3.706;2022-08-11T09:43:27;43.10;43.20
56046;DHT22;41913;51.030;3.706;2022-08-11T09:46:12;42.90;43.20
56046;DHT22;41913;51.030;3.706;2022-08-11T09:48:46;42.00;43.20
56046;DHT22;41913;51.030;3.706;2022-08-11T09:51:14;42.60;43.20
56046;DHT22;41913;51.030;3.706;2022-08-11T09:53:42;42.00;43.10
56046;DHT22;41913;51.030;3.706;2022-08-11T09:56:15;42.00;43.30
56046;DHT22;41913;51.030;3.706;2022-08-11T09:59:01;42.00;43.30
56046;DHT22;41913;51.030;3.706;2022-08-11T10:01:38;42.50;43.40
56046;DHT22;41913;51.030;3.706;2022-08-11T10:04:20;43.10;43.40
56046;DHT22;41913;51.030;3.706;2022-08-11T10:06:51;43.90;42.20
56046;DHT22;41913;51.030;3.706;2022-08-11T10:09:46;44.00;42.10
56046;DHT22;41913;51.030;3.706;2022-08-11T10:12:39;44.30;42.00
56046;DHT22;41913;51.030;3.706;2022-08-11T10:15:11;43.60;42.00
56046;DHT22;41913;51.030;3.706;2022-08-11T10:18:12;43.10;41.80
56046;DHT22;41913;51.030;3.706;2022-08-11T10:21:13;42.80;41.90
56046;DHT22;41913;51.030;3.706;2022-08-11T10:23:41;43.30;42.00
56046;DHT22;41913;51.030;3.706;2022-08-11T10:26:37;42.70;41.00
56046;DHT22;41913;51.030;3.706;2022-08-11T10:29:31;43.70;40.50
56046;DHT22;41913;51.030;3.706;2022-08-11T10:32:22;42.30;40.40
56046;DHT22;41913;51.030;3.706;2022-08-11T10:35:08;42.50;40.60
56046;DHT22;41913;51.030;3.706;2022-08-11T10:37:38;42.00;40.50
56046;DHT22;41913;51.030;3.706;2022-08-11T10:40:04;40.90;41.00
56046;DHT22;41913;51.030;3.706;2022-08-11T10:42:32;40.50;41.30
56046;DHT22;41913;51.030;3.706;2022-08-11T10:45:31;40.50;41.10
56046;DHT22;41913;51.030;3.706;2022-08-11T10:48:21;39.80;41.10
56046;DHT22;41913;51.030;3.706;2022-08-11T10:50:50;40.80;40.90
56046;DHT22;41913;51.030;3.706;2022-08-11T10:53:37;38.90;41.00
56046;DHT22;41913;51.030;3.706;2022-08-11T10:56:23;40.30;41.00
56046;DHT22;41913;51.030;3.706;2022-08-11T10:59:08;40.50;41.30
56046;DHT22;41913;51.030;3.706;2022-08-11T11:01:40;40.80;40.70
56046;DHT22;41913;51.030;3.706;2022-08-11T11:04:16;39.90;40.90
56046;DHT22;41913;51.030;3.706;2022-08-11T11:07:04;40.00;40.90
56046;DHT22;41913;51.030;3.706;2022-08-11T11:09:47;39.60;41.20
56046;DHT22;41913;51.030;3.706;2022-08-11T11:12:26;37.50;42.70
56046;DHT22;41913;51.030;3.706;2022-08-11T11:15:18;36.00;43.90
56046;DHT22;41913;51.030;3.706;2022-08-11T11:18:21;34.70;44.70
56046;DHT22;41913;51.030;3.706;2022-08-11T11:21:11;33.80;45.00
56046;DHT22;41913;51.030;3.706;2022-08-11T11:27:02;33.30;46.20
56046;DHT22;41913;51.030;3.706;2022-08-11T11:37:32;33.20;46.00
56046;DHT22;41913;51.030;3.706;2022-08-11T11:40:07;33.10;45.60
56046;DHT22;41913;51.030;3.706;2022-08-11T11:42:39;33.00;46.20
56046;DHT22;41913;51.030;3.706;2022-08-11T11:45:07;33.10;46.30
56046;DHT22;41913;51.030;3.706;2022-08-11T11:47:35;33.30;46.20
56046;DHT22;41913;51.030;3.706;2022-08-11T11:50:03;33.20;45.90
56046;DHT22;41913;51.030;3.706;2022-08-11T11:52:37;33.20;45.80
56046;DHT22;41913;51.030;3.706;2022-08-11T11:55:06;33.30;46.00
56046;DHT22;41913;51.030;3.706;2022-08-11T11:57:35;33.00;46.90
56046;DHT22;41913;51.030;3.706;2022-08-11T12:00:22;33.00;46.00
56046;DHT22;41913;51.030;3.706;2022-08-11T12:03:10;33.00;46.00
56046;DHT22;41913;51.030;3.706;2022-08-11T12:05:37;32.70;46.50
56046;DHT22;41913;51.030;3.706;2022-08-11T12:08:07;32.40;46.30
56046;DHT22;41913;51.030;3.706;2022-08-11T12:10:52;32.40;46.70
56046;DHT22;41913;51.030;3.706;2022-08-11T12:13:45;32.60;46.30
56046;DHT22;41913;51.030;3.706;2022-08-11T12:16:13;32.50;46.40
56046;DHT22;41913;51.030;3.706;2022-08-11T12:18:42;32.30;46.40
56046;DHT22;41913;51.030;3.706;2022-08-11T12:21:10;32.30;46.60
56046;DHT22;41913;51.030;3.706;2022-08-11T12:23:40;32.60;46.50
56046;DHT22;41913;51.030;3.706;2022-08-11T12:26:29;32.20;46.70
56046;DHT22;41913;51.030;3.706;2022-08-11T12:29:30;32.10;46.70
56046;DHT22;41913;51.030;3.706;2022-08-11T12:31:57;32.00;46.70
56046;DHT22;41913;51.030;3.706;2022-08-11T12:34:26;32.00;46.80
56046;DHT22;41913;51.030;3.706;2022-08-11T12:37:00;32.30;46.20
56046;DHT22;41913;51.030;3.706;2022-08-11T12:39:36;32.60;46.00
56046;DHT22;41913;51.030;3.706;2022-08-11T12:42:23;32.40;46.30
56046;DHT22;41913;51.030;3.706;2022-08-11T12:45:16;32.40;46.40
56046;DHT22;41913;51.030;3.706;2022-08-11T12:48:05;32.30;45.80
56046;DHT22;41913;51.030;3.706;2022-08-11T12:50:54;32.50;45.70
56046;DHT22;41913;51.030;3.706;2022-08-11T12:53:45;32.40;45.50
56046;DHT22;41913;51.030;3.706;2022-08-11T12:56:19;32.40;46.00
56046;DHT22;41913;51.030;3.706;2022-08-11T12:59:05;32.50;45.80
56046;DHT22;41913;51.030;3.706;2022-08-11T13:01:49;32.40;45.30
56046;DHT22;41913;51.030;3.706;2022-08-11T13:04:35;32.40;45.30
56046;DHT22;41913;51.030;3.706;2022-08-11T13:07:27;32.40;45.40
56046;DHT22;41913;51.030;3.706;2022-08-11T13:09:56;32.30;46.00
56046;DHT22;41913;51.030;3.706;2022-08-11T13:12:30;32.40;45.80
56046;DHT22;41913;51.030;3.706;2022-08-11T13:15:20;32.60;46.10
56046;DHT22;41913;51.030;3.706;2022-08-11T13:17:47;32.20;46.30
56046;DHT22;41913;51.030;3.706;2022-08-11T13:20:20;32.40;45.90
56046;DHT22;41913;51.030;3.706;2022-08-11T13:22:52;32.50;45.40
56046;DHT22;41913;51.030;3.706;2022-08-11T13:25:24;32.30;45.80
56046;DHT22;41913;51.030;3.706;2022-08-11T13:27:52;32.30;45.90
56046;DHT22;41913;51.030;3.706;2022-08-11T13:30:24;32.30;46.40
56046;DHT22;41913;51.030;3.706;2022-08-11T13:33:08;32.40;46.40
56046;DHT22;41913;51.030;3.706;2022-08-11T13:35:37;32.50;46.60
56046;DHT22;41913;51.030;3.706;2022-08-11T13:38:04;32.60;46.80
56046;DHT22;41913;51.030;3.706;2022-08-11T13:40:33;32.50;47.00
56046;DHT22;41913;51.030;3.706;2022-08-11T13:43:00;32.60;47.30
56046;DHT22;41913;51.030;3.706;2022-08-11T13:45:26;32.70;46.80
56046;DHT22;41913;51.030;3.706;2022-08-11T13:47:56;32.70;46.40
56046;DHT22;41913;51.030;3.706;2022-08-11T13:50:26;32.80;46.60
56046;DHT22;41913;51.030;3.706;2022-08-11T13:53:11;32.90;46.50
56046;DHT22;41913;51.030;3.706;2022-08-11T13:55:40;32.60;46.50
56046;DHT22;41913;51.030;3.706;2022-08-11T13:58:12;32.90;46.00
56046;DHT22;41913;51.030;3.706;2022-08-11T14:00:41;32.90;46.10
56046;DHT22;41913;51.030;3.706;2022-08-11T14:03:11;32.70;45.90
56046;DHT22;41913;51.030;3.706;2022-08-11T14:05:45;32.90;46.30
56046;DHT22;41913;51.030;3.706;2022-08-11T14:08:34;32.80;46.50
56046;DHT22;41913;51.030;3.706;2022-08-11T14:11:05;32.60;46.50
56046;DHT22;41913;51.030;3.706;2022-08-11T14:13:51;32.50;46.50
56046;DHT22;41913;51.030;3.706;2022-08-11T14:16:33;32.40;46.10
56046;DHT22;41913;51.030;3.706;2022-08-11T14:19:06;32.50;46.20
56046;DHT22;41913;51.030;3.706;2022-08-11T14:21:38;32.60;45.50
56046;DHT22;41913;51.030;3.706;2022-08-11T14:24:25;32.70;45.50
56046;DHT22;41913;51.030;3.706;2022-08-11T14:27:15;32.70;45.90
56046;DHT22;41913;51.030;3.706;2022-08-11T14:29:46;32.70;46.30
56046;DHT22;41913;51.030;3.706;2022-08-11T14:32:13;32.70;46.20
56046;DHT22;41913;51.030;3.706;2022-08-11T14:34:41;32.60;46.30
56046;DHT22;41913;51.030;3.706;2022-08-11T14:37:13;32.70;46.20
56046;DHT22;41913;51.030;3.706;2022-08-11T14:40:00;32.90;46.10
56046;DHT22;41913;51.030;3.706;2022-08-11T14:42:45;32.90;45.90
56046;DHT22;41913;51.030;3.706;2022-08-11T14:45:30;32.60;46.60
56046;DHT22;41913;51.030;3.706;2022-08-11T14:48:15;32.70;47.30
56046;DHT22;41913;51.030;3.706;2022-08-11T14:50:42;32.60;46.50
56046;DHT22;41913;51.030;3.706;2022-08-11T14:53:10;32.60;46.60
56046;DHT22;41913;51.030;3.706;2022-08-11T14:55:39;32.50;46.50
56046;DHT22;41913;51.030;3.706;2022-08-11T14:58:35;32.50;46.50
56046;DHT22;41913;51.030;3.706;2022-08-11T15:01:04;32.60;46.50
56046;DHT22;41913;51.030;3.706;2022-08-11T15:03:50;32.60;46.60
56046;DHT22;41913;51.030;3.706;2022-08-11T15:06:17;32.80;46.00
56046;DHT22;41913;51.030;3.706;2022-08-11T15:08:47;33.00;45.80
56046;DHT22;41913;51.030;3.706;2022-08-11T15:11:22;33.00;46.30
56046;DHT22;41913;51.030;3.706;2022-08-11T15:14:11;32.90;46.10
56046;DHT22;41913;51.030;3.706;2022-08-11T15:16:44;32.90;46.00
56046;DHT22;41913;51.030;3.706;2022-08-11T15:19:32;32.80;45.80
56046;DHT22;41913;51.030;3.706;2022-08-11T15:21:59;32.80;45.60
56046;DHT22;41913;51.030;3.706;2022-08-11T15:24:47;32.80;45.50
56046;DHT22;41913;51.030;3.706;2022-08-11T15:27:18;32.90;45.20
56046;DHT22;41913;51.030;3.706;2022-08-11T15:30:05;32.90;45.50
56046;DHT22;41913;51.030;3.706;2022-08-11T15:32:50;32.90;45.40
56046;DHT22;41913;51.030;3.706;2022-08-11T15:35:41;33.00;45.40
56046;DHT22;41913;51.030;3.706;2022-08-11T15:38:26;32.90;45.60
56046;DHT22;41913;51.030;3.706;2022-08-11T15:40:55;32.90;45.80
56046;DHT22;41913;51.030;3.706;2022-08-11T15:43:44;32.90;45.60
56046;DHT22;41913;51.030;3.706;2022-08-11T15:46:38;32.80;44.00
56046;DHT22;41913;51.030;3.706;2022-08-11T15:49:11;32.90;44.10
56046;DHT22;41913;51.030;3.706;2022-08-11T15:51:48;32.80;44.90
56046;DHT22;41913;51.030;3.706;2022-08-11T15:54:22;32.90;45.10
56046;DHT22;41913;51.030;3.706;2022-08-11T15:56:51;32.80;45.20
56046;DHT22;41913;51.030;3.706;2022-08-11T15:59:20;32.70;45.30
56046;DHT22;41913;51.030;3.706;2022-08-11T16:02:14;32.80;45.20
56046;DHT22;41913;51.030;3.706;2022-08-11T16:05:02;32.90;45.20
56046;DHT22;41913;51.030;3.706;2022-08-11T16:07:31;32.90;44.90
56046;DHT22;41913;51.030;3.706;2022-08-11T16:10:02;32.90;44.60
56046;DHT22;41913;51.030;3.706;2022-08-11T16:12:38;32.90;44.40
56046;DHT22;41913;51.030;3.706;2022-08-11T16:15:08;32.80;44.60
56046;DHT22;41913;51.030;3.706;2022-08-11T16:17:58;32.70;44.50
56046;DHT22;41913;51.030;3.706;2022-08-11T16:20:26;32.70;44.60
56046;DHT22;41913;51.030;3.706;2022-08-11T16:22:57;32.80;44.40
56046;DHT22;41913;51.030;3.706;2022-08-11T16:25:24;32.70;44.30
56046;DHT22;41913;51.030;3.706;2022-08-11T16:27:56;32.60;44.50
56046;DHT22;41913;51.030;3.706;2022-08-11T16:30:33;32.60;44.70
56046;DHT22;41913;51.030;3.706;2022-08-11T16:33:00;32.50;44.90
56046;DHT22;41913;51.030;3.706;2022-08-11T16:35:31;32.50;45.00
56046;DHT22;41913;51.030;3.706;2022-08-11T16:38:21;32.70;45.20
56046;DHT22;41913;51.030;3.706;2022-08-11T16:41:16;32.40;45.50
56046;DHT22;41913;51.030;3.706;2022-08-11T16:44:08;32.50;45.50
56046;DHT22;41913;51.030;3.706;2022-08-11T16:46:53;32.40;45.70
56046;DHT22;41913;51.030;3.706;2022-08-11T16:49:36;32.50;46.30
56046;DHT22;41913;51.030;3.706;2022-08-11T16:52:06;32.60;45.50
56046;DHT22;41913;51.030;3.706;2022-08-11T16:54:39;32.70;45.50
56046;DHT22;41913;51.030;3.706;2022-08-11T16:57:12;33.00;45.00
56046;DHT22;41913;51.030;3.706;2022-08-11T17:00:03;33.00;44.90
56046;DHT22;41913;51.030;3.706;2022-08-11T17:02:46;33.10;45.10
56046;DHT22;41913;51.030;3.706;2022-08-11T17:05:35;32.70;44.90
56046;DHT22;41913;51.030;3.706;2022-08-11T17:08:32;32.70;44.80
56046;DHT22;41913;51.030;3.706;2022-08-11T17:11:20;32.80;44.80
56046;DHT22;41913;51.030;3.706;2022-08-11T17:14:14;33.00;44.90
56046;DHT22;41913;51.030;3.706;2022-08-11T17:16:44;33.10;44.80
56046;DHT22;41913;51.030;3.706;2022-08-11T17:19:21;33.20;44.90
56046;DHT22;41913;51.030;3.706;2022-08-11T17:21:51;33.00;44.90
56046;DHT22;41913;51.030;3.706;2022-08-11T17:24:45;32.90;45.30
56046;DHT22;41913;51.030;3.706;2022-08-11T17:27:15;33.10;45.30
56046;DHT22;41913;51.030;3.706;2022-08-11T17:29:49;33.20;45.40
56046;DHT22;41913;51.030;3.706;2022-08-11T17:32:18;33.00;45.40
56046;DHT22;41913;51.030;3.706;2022-08-11T17:35:20;32.90;45.70
56046;DHT22;41913;51.030;3.706;2022-08-11T17:38:20;32.50;46.10
56046;DHT22;41913;51.030;3.706;2022-08-11T17:40:56;32.40;46.20
56046;DHT22;41913;51.030;3.706;2022-08-11T17:43:44;32.30;46.30
56046;DHT22;41913;51.030;3.706;2022-08-11T17:46:30;32.10;46.10
56046;DHT22;41913;51.030;3.706;2022-08-11T17:49:15;32.00;46.30
56046;DHT22;41913;51.030;3.706;2022-08-11T17:51:46;32.10;46.10
56046;DHT22;41913;51.030;3.706;2022-08-11T17:54:35;32.30;46.10
56046;DHT22;41913;51.030;3.706;2022-08-11T17:57:24;32.40;46.10
56046;DHT22;41913;51.030;3.706;2022-08-11T18:00:16;32.60;45.90
56046;DHT22;41913;51.030;3.706;2022-08-11T18:02:44;32.60;45.50
56046;DHT22;41913;51.030;3.706;2022-08-11T18:05:35;32.60;45.50
56046;DHT22;41913;51.030;3.706;2022-08-11T18:08:07;32.40;45.40
56046;DHT22;41913;51.030;3.706;2022-08-11T18:10:53;32.10;45.60
56046;DHT22;41913;51.030;3.706;2022-08-11T18:13:40;32.00;45.90
56046;DHT22;41913;51.030;3.706;2022-08-11T18:16:25;31.80;46.10
56046;DHT22;41913;51.030;3.706;2022-08-11T18:19:10;31.70;46.40
56046;DHT22;41913;51.030;3.706;2022-08-11T18:22:02;31.40;46.50
56046;DHT22;41913;51.030;3.706;2022-08-11T18:24:59;31.20;46.80
56046;DHT22;41913;51.030;3.706;2022-08-11T18:27:46;31.00;47.10
56046;DHT22;41913;51.030;3.706;2022-08-11T18:30:34;30.90;47.30
56046;DHT22;41913;51.030;3.706;2022-08-11T18:33:21;30.90;47.40
56046;DHT22;41913;51.030;3.706;2022-08-11T18:36:12;30.80;47.60
56046;DHT22;41913;51.030;3.706;2022-08-11T18:38:59;30.70;47.80
56046;DHT22;41913;51.030;3.706;2022-08-11T18:41:50;30.60;48.10
56046;DHT22;41913;51.030;3.706;2022-08-11T18:44:35;30.50;48.40
56046;DHT22;41913;51.030;3.706;2022-08-11T18:47:23;30.40;48.40
56046;DHT22;41913;51.030;3.706;2022-08-11T18:50:10;30.30;48.60
56046;DHT22;41913;51.030;3.706;2022-08-11T18:52:57;30.20;48.80
56046;DHT22;41913;51.030;3.706;2022-08-11T18:55:46;30.10;49.00
56046;DHT22;41913;51.030;3.706;2022-08-11T18:58:35;30.10;49.20
56046;DHT22;41913;51.030;3.706;2022-08-11T19:01:22;30.00;49.30
56046;DHT22;41913;51.030;3.706;2022-08-11T19:04:10;29.80;49.40
56046;DHT22;41913;51.030;3.706;2022-08-11T19:06:59;29.70;49.70
56046;DHT22;41913;51.030;3.706;2022-08-11T19:09:47;29.70;49.80
56046;DHT22;41913;51.030;3.706;2022-08-11T19:12:38;29.60;50.00
56046;DHT22;41913;51.030;3.706;2022-08-11T19:15:24;29.50;50.10
56046;DHT22;41913;51.030;3.706;2022-08-11T19:18:13;29.40;50.20
56046;DHT22;41913;51.030;3.706;2022-08-11T19:21:00;29.30;50.50
56046;DHT22;41913;51.030;3.706;2022-08-11T19:23:49;29.20;50.80
56046;DHT22;41913;51.030;3.706;2022-08-11T19:26:34;29.10;50.90
56046;DHT22;41913;51.030;3.706;2022-08-11T19:29:23;29.00;51.70
56046;DHT22;41913;51.030;3.706;2022-08-11T19:32:17;28.90;51.40
56046;DHT22;41913;51.030;3.706;2022-08-11T19:35:03;28.80;51.50
56046;DHT22;41913;51.030;3.706;2022-08-11T19:37:48;28.80;51.70
56046;DHT22;41913;51.030;3.706;2022-08-11T19:40:34;28.70;51.80
56046;DHT22;41913;51.030;3.706;2022-08-11T19:43:20;28.60;52.00
56046;DHT22;41913;51.030;3.706;2022-08-11T19:46:06;28.60;52.10
56046;DHT22;41913;51.030;3.706;2022-08-11T19:48:52;28.50;52.20
56046;DHT22;41913;51.030;3.706;2022-08-11T19:51:38;28.50;52.40
56046;DHT22;41913;51.030;3.706;2022-08-11T19:54:29;28.40;52.40
56046;DHT22;41913;51.030;3.706;2022-08-11T19:57:15;28.30;52.60
56046;DHT22;41913;51.030;3.706;2022-08-11T20:00:03;28.30;52.70